createdAt,value
2022-10-09T00:01:43.321Z,101300.72
2022-10-09T00:04:12.565Z,101296.31
2022-10-09T00:06:43.124Z,101295.84
2022-10-09T00:09:12.965Z,101298.78
2022-10-09T00:11:42.172Z,101300.88
2022-10-09T00:14:11.366Z,101301.69
2022-10-09T00:16:40.543Z,101283.41
2022-10-09T00:19:09.820Z,101282.63
2022-10-09T00:21:38.956Z,101284.38
2022-10-09T00:24:10.467Z,101273.84
2022-10-09T00:26:40.994Z,101274.69
2022-10-09T00:29:10.173Z,101270.81
2022-10-09T00:31:39.357Z,101266.91
2022-10-09T00:34:08.607Z,101253.50
2022-10-09T00:36:37.817Z,101257.19
2022-10-09T00:39:08.292Z,101244.41
2022-10-09T00:41:37.848Z,101242.16
2022-10-09T00:44:51.650Z,101237.47
2022-10-09T00:47:27.958Z,101242.63
2022-10-09T00:50:01.327Z,101233.38
2022-10-09T00:52:31.185Z,101237.94
2022-10-09T00:55:03.184Z,101235.50
2022-10-09T00:57:34.474Z,101237.59
2022-10-09T01:00:09.407Z,101234.22
2022-10-09T01:02:38.812Z,101234.22
2022-10-09T01:05:10.484Z,101230.00
2022-10-09T01:07:49.314Z,101234.03
2022-10-09T01:10:33.587Z,101210.88
2022-10-09T01:13:12.904Z,101217.06
2022-10-09T01:15:51.021Z,101210.75
2022-10-09T01:18:29.783Z,101203.94
2022-10-09T01:21:04.048Z,101202.63
2022-10-09T01:24:14.712Z,101191.16
2022-10-09T01:27:01.375Z,101178.38
2022-10-09T01:29:42.419Z,101171.72
2022-10-09T01:32:16.455Z,101179.69
2022-10-09T01:34:47.309Z,101146.50
2022-10-09T01:37:18.329Z,101146.50
2022-10-09T01:39:49.907Z,101160.09
2022-10-09T01:42:24.346Z,101152.34
2022-10-09T01:44:53.627Z,101151.66
2022-10-09T01:47:23.779Z,101151.03
2022-10-09T01:50:00.177Z,101140.00
2022-10-09T01:52:42.785Z,101129.38
2022-10-09T01:55:28.965Z,101111.38
2022-10-09T01:58:07.019Z,101121.72
2022-10-09T02:00:44.272Z,101111.06
2022-10-09T02:03:16.728Z,101114.78
2022-10-09T02:05:49.083Z,101096.19
2022-10-09T02:08:22.164Z,101102.50
2022-10-09T02:10:57.750Z,101093.13
2022-10-09T02:13:29.076Z,101085.06
2022-10-09T02:16:05.691Z,101080.69
2022-10-09T02:18:42.011Z,101074.53
2022-10-09T02:21:16.177Z,101060.31
2022-10-09T02:23:48.976Z,101073.06
2022-10-09T02:26:18.432Z,101053.31
2022-10-09T02:28:49.045Z,101071.41
2022-10-09T02:31:25.061Z,101056.88
2022-10-09T02:33:58.435Z,101056.38
2022-10-09T02:36:28.339Z,101051.22
2022-10-09T02:38:58.752Z,101024.03
2022-10-09T02:41:29.221Z,101048.59
2022-10-09T02:44:00.228Z,101044.91
2022-10-09T02:46:29.805Z,101038.59
2022-10-09T02:48:58.990Z,101036.31
2022-10-09T02:51:28.713Z,101019.84
2022-10-09T02:53:59.706Z,101036.66
2022-10-09T02:56:29.378Z,101034.03
2022-10-09T02:59:00.078Z,101028.41
2022-10-09T03:01:29.328Z,101019.63
2022-10-09T03:03:58.453Z,101006.06
2022-10-09T03:06:30.498Z,101019.78
2022-10-09T03:08:59.641Z,101019.94
2022-10-09T03:11:28.940Z,100994.88
2022-10-09T03:13:59.569Z,101004.06
2022-10-09T03:16:29.645Z,100997.75
2022-10-09T03:19:00.206Z,101000.66
2022-10-09T03:21:29.955Z,100995.34
2022-10-09T03:23:59.193Z,100992.13
2022-10-09T03:26:29.638Z,100971.25
2022-10-09T03:29:00.276Z,100973.16
2022-10-09T03:34:18.580Z,100968.66
2022-10-09T03:36:47.736Z,100969.94
2022-10-09T03:39:17.114Z,100959.06
2022-10-09T03:41:46.250Z,100954.06
2022-10-09T03:44:16.756Z,100940.94
2022-10-09T03:46:46.816Z,100945.94
2022-10-09T03:49:16.762Z,100962.78
2022-10-09T03:51:45.935Z,100934.13
2022-10-09T03:54:15.149Z,100937.63
2022-10-09T03:56:44.823Z,100948.13
2022-10-09T03:59:15.586Z,100935.63
2022-10-09T04:01:44.794Z,100941.00
2022-10-09T04:04:14.037Z,100941.75
2022-10-09T04:06:43.263Z,100926.41
2022-10-09T04:09:12.392Z,100889.88
2022-10-09T04:11:41.626Z,100897.72
2022-10-09T04:14:10.910Z,100899.41
2022-10-09T04:16:41.516Z,100889.88
2022-10-09T04:19:12.201Z,100882.25
2022-10-09T04:21:41.366Z,100881.78
2022-10-09T04:24:10.530Z,100877.66
2022-10-09T04:26:39.695Z,100877.22
2022-10-09T04:29:08.984Z,100857.06
2022-10-09T04:31:38.180Z,100860.28
2022-10-09T04:34:08.837Z,100848.16
2022-10-09T04:36:38.199Z,100842.53
2022-10-09T04:39:07.722Z,100850.13
2022-10-09T04:41:38.534Z,100838.38
2022-10-09T04:44:08.028Z,100842.44
2022-10-09T04:46:37.337Z,100839.50
2022-10-09T04:49:07.947Z,100847.75
2022-10-09T04:51:37.194Z,100847.56
2022-10-09T04:54:06.646Z,100848.72
2022-10-09T04:56:35.957Z,100836.91
2022-10-09T04:59:05.340Z,100841.09
2022-10-09T05:01:38.316Z,100825.84
2022-10-09T05:04:09.972Z,100847.06
2022-10-09T05:06:39.120Z,100821.91
2022-10-09T05:09:08.206Z,100826.59
2022-10-09T05:11:42.332Z,100823.00
2022-10-09T05:14:12.228Z,100826.94
2022-10-09T05:17:08.517Z,100825.75
2022-10-09T05:19:32.200Z,100815.16
2022-10-09T05:22:01.796Z,100794.16
2022-10-09T05:24:31.088Z,100795.41
2022-10-09T05:27:00.273Z,100787.84
2022-10-09T05:29:29.431Z,100805.16
2022-10-09T05:31:58.590Z,100785.44
2022-10-09T05:34:27.826Z,100781.41
2022-10-09T05:36:58.378Z,100780.59
2022-10-09T05:39:27.544Z,100767.63
2022-10-09T05:41:56.647Z,100757.69
2022-10-09T05:44:26.132Z,100766.94
2022-10-09T05:46:55.447Z,100772.25
2022-10-09T05:49:25.057Z,100760.19
2022-10-09T05:51:54.737Z,100757.81
2022-10-09T05:54:25.306Z,100753.78
2022-10-09T05:56:54.401Z,100741.72
2022-10-09T05:59:23.539Z,100734.53
2022-10-09T06:01:54.942Z,100732.94
2022-10-09T06:04:26.212Z,100736.09
2022-10-09T06:06:55.477Z,100730.09
2022-10-09T06:09:27.483Z,100716.66
2022-10-09T06:11:56.980Z,100715.22
2022-10-09T06:14:26.215Z,100699.25
2022-10-09T06:16:55.420Z,100721.31
2022-10-09T06:19:24.629Z,100704.16
2022-10-09T06:21:53.740Z,100726.88
2022-10-09T06:24:29.144Z,100708.28
2022-10-09T06:26:59.425Z,100719.28
2022-10-09T06:29:30.171Z,100707.38
2022-10-09T06:31:59.435Z,100715.53
2022-10-09T06:34:28.741Z,100709.59
2022-10-09T06:36:57.851Z,100721.00
2022-10-09T06:39:28.451Z,100718.91
2022-10-09T06:41:57.621Z,100720.09
2022-10-09T06:44:47.063Z,100719.53
2022-10-09T06:47:16.418Z,100721.16
2022-10-09T06:49:45.572Z,100724.25
2022-10-09T06:52:14.691Z,100704.47
2022-10-09T06:54:45.250Z,100714.53
2022-10-09T06:57:14.454Z,100710.53
2022-10-09T06:59:43.574Z,100690.81
2022-10-09T07:02:13.024Z,100676.69
2022-10-09T07:04:42.248Z,100676.25
2022-10-09T07:07:11.473Z,100668.78
2022-10-09T07:09:40.619Z,100648.66
2022-10-09T07:12:11.109Z,100664.63
2022-10-09T07:14:40.303Z,100658.31
2022-10-09T07:17:10.041Z,100665.66
2022-10-09T07:19:39.403Z,100648.22
2022-10-09T07:22:11.641Z,100643.16
2022-10-09T07:24:40.886Z,100640.31
2022-10-09T07:27:11.418Z,100621.91
2022-10-09T07:29:40.571Z,100626.88
2022-10-09T07:32:10.634Z,100630.88
2022-10-09T07:34:39.966Z,100627.59
2022-10-09T07:37:09.151Z,100622.28
2022-10-09T07:39:42.816Z,100613.91
2022-10-09T07:42:15.347Z,100591.19
2022-10-09T07:44:44.561Z,100600.50
2022-10-09T07:47:13.691Z,100600.84
2022-10-09T07:49:42.957Z,100595.69
2022-10-09T07:52:12.086Z,100604.75
2022-10-09T07:54:41.218Z,100613.59
2022-10-09T07:57:10.382Z,100616.16
2022-10-09T07:59:41.309Z,100619.16
2022-10-09T08:02:10.766Z,100611.91
2022-10-09T08:04:40.078Z,100599.97
2022-10-09T08:07:09.596Z,100619.72
2022-10-09T08:09:39.707Z,100574.72
2022-10-09T08:12:08.893Z,100585.34
2022-10-09T08:14:38.012Z,100600.25
2022-10-09T08:17:08.608Z,100598.84
2022-10-09T08:19:37.893Z,100603.88
2022-10-09T08:22:07.184Z,100600.19
2022-10-09T08:24:36.468Z,100602.28
2022-10-09T08:27:06.132Z,100597.19
2022-10-09T08:29:40.030Z,100584.00
2022-10-09T08:32:11.011Z,100578.75
2022-10-09T08:34:40.327Z,100571.88
2022-10-09T08:37:09.464Z,100566.94
2022-10-09T08:39:38.683Z,100550.41
2022-10-09T08:42:08.483Z,100563.97
2022-10-09T08:44:45.900Z,100560.84
2022-10-09T08:47:23.344Z,100551.34
2022-10-09T08:49:58.754Z,100561.41
2022-10-09T08:52:39.904Z,100558.75
2022-10-09T08:55:21.580Z,100545.34
2022-10-09T08:57:54.093Z,100545.41
2022-10-09T09:00:28.298Z,100531.34
2022-10-09T09:03:35.182Z,100547.66
2022-10-09T09:06:10.925Z,100535.22
2022-10-09T09:08:49.726Z,100529.00
2022-10-09T09:11:28.270Z,100519.34
2022-10-09T09:14:12.696Z,100523.84
2022-10-09T09:16:51.730Z,100507.41
2022-10-09T09:19:53.935Z,100492.38
2022-10-09T09:22:24.656Z,100490.06
2022-10-09T09:24:55.765Z,100478.16
2022-10-09T09:27:31.785Z,100462.66
2022-10-09T09:30:17.150Z,100468.31
2022-10-09T09:32:56.712Z,100473.31
2022-10-09T09:35:35.541Z,100484.47
2022-10-09T09:38:04.932Z,100492.28
2022-10-09T09:40:38.125Z,100499.28
2022-10-09T09:43:18.863Z,100514.78
2022-10-09T09:45:49.168Z,100503.25
2022-10-09T09:48:27.661Z,100490.84
2022-10-09T09:51:16.058Z,100507.66
2022-10-09T09:53:51.112Z,100491.38
2022-10-09T09:56:20.770Z,100492.09
2022-10-09T09:58:54.014Z,100485.41
2022-10-09T10:01:26.862Z,100502.97
2022-10-09T10:03:58.626Z,100485.38
2022-10-09T10:06:32.402Z,100484.84
2022-10-09T10:09:07.169Z,100461.63
2022-10-09T10:11:36.408Z,100459.22
2022-10-09T10:14:10.195Z,100466.69
2022-10-09T10:16:41.130Z,100448.53
2022-10-09T10:19:23.948Z,100436.53
2022-10-09T10:22:00.538Z,100423.34
2022-10-09T10:24:36.452Z,100423.84
2022-10-09T10:27:15.161Z,100431.84
2022-10-09T10:29:47.716Z,100418.50
2022-10-09T10:32:22.901Z,100407.63
2022-10-09T10:34:58.073Z,100416.19
2022-10-09T10:37:41.473Z,100403.91
2022-10-09T10:40:19.377Z,100412.00
2022-10-09T10:43:02.735Z,100402.47
2022-10-09T10:45:39.162Z,100412.31
2022-10-09T10:48:13.738Z,100408.38
2022-10-09T10:50:49.832Z,100404.91
2022-10-09T10:53:35.183Z,100394.94
2022-10-09T10:56:11.310Z,100402.59
2022-10-09T10:58:50.647Z,100369.69
2022-10-09T11:01:34.359Z,100361.53
2022-10-09T11:04:34.626Z,100347.50
2022-10-09T11:07:17.872Z,100339.84
2022-10-09T11:10:01.378Z,100356.97
2022-10-09T11:12:53.524Z,100296.09
2022-10-09T11:15:37.910Z,100340.47
2022-10-09T11:18:25.447Z,100327.31
2022-10-09T11:21:14.528Z,100326.25
2022-10-09T11:24:06.799Z,100317.31
2022-10-09T11:26:49.724Z,100301.16
2022-10-09T11:29:23.453Z,100300.06
2022-10-09T11:31:58.575Z,100286.25
2022-10-09T11:34:34.979Z,100260.91
2022-10-09T11:37:09.194Z,100280.59
2022-10-09T11:39:39.945Z,100278.13
2022-10-09T11:42:14.214Z,100274.69
2022-10-09T11:44:50.341Z,100263.84
2022-10-09T11:47:26.555Z,100275.84
2022-10-09T11:50:21.098Z,100270.16
2022-10-09T11:53:00.783Z,100271.81
2022-10-09T11:55:32.383Z,100265.13
2022-10-09T11:58:24.274Z,100271.00
2022-10-09T12:00:56.868Z,100263.69
2022-10-09T12:03:33.583Z,100239.28
2022-10-09T12:06:13.914Z,100257.81
2022-10-09T12:08:54.276Z,100232.59
2022-10-09T12:11:25.216Z,100237.16
2022-10-09T12:14:00.156Z,100245.03
2022-10-09T12:16:48.279Z,100241.84
2022-10-09T12:19:23.386Z,100227.97
2022-10-09T12:22:00.868Z,100246.44
2022-10-09T12:24:34.986Z,100232.16
2022-10-09T12:27:06.146Z,100223.59
2022-10-09T12:29:46.309Z,100226.81
2022-10-09T12:32:24.601Z,100217.28
2022-10-09T12:34:55.185Z,100185.22
2022-10-09T12:37:35.204Z,100214.09
2022-10-09T12:40:17.129Z,100212.09
2022-10-09T12:42:47.660Z,100213.81
2022-10-09T12:45:22.590Z,100169.47
2022-10-09T12:47:52.588Z,100182.78
2022-10-09T12:50:28.310Z,100190.50
2022-10-09T12:53:00.994Z,100164.72
2022-10-09T12:55:33.651Z,100163.31
2022-10-09T12:58:05.528Z,100150.13
2022-10-09T13:00:37.337Z,100168.94
2022-10-09T13:03:06.616Z,100132.97
2022-10-09T13:05:40.777Z,100128.66
2022-10-09T13:08:27.020Z,100093.19
2022-10-09T13:10:56.827Z,100114.25
2022-10-09T13:13:29.338Z,100097.25
2022-10-09T13:16:06.544Z,100084.66
2022-10-09T13:18:36.221Z,100104.75
2022-10-09T13:21:22.405Z,100095.75
2022-10-09T13:23:52.009Z,100079.91
2022-10-09T13:26:28.362Z,100079.84
2022-10-09T13:29:02.358Z,100079.34
2022-10-09T13:31:34.061Z,100086.44
2022-10-09T13:34:12.989Z,100084.41
2022-10-09T13:36:42.565Z,100067.25
2022-10-09T13:39:15.843Z,100064.44
2022-10-09T13:41:46.292Z,100060.44
2022-10-09T13:44:15.515Z,100079.31
2022-10-09T13:46:46.026Z,100061.63
2022-10-09T13:49:15.478Z,100065.44
2022-10-09T13:51:44.930Z,100067.91
2022-10-09T13:54:14.365Z,100048.28
2022-10-09T13:56:43.539Z,100032.38
2022-10-09T13:59:12.780Z,100035.09
2022-10-09T14:01:41.952Z,100045.38
2022-10-09T14:04:12.524Z,100015.19
2022-10-09T14:06:41.654Z,100019.31
2022-10-09T14:09:11.087Z,100023.09
2022-10-09T14:11:40.476Z,100027.34
2022-10-09T14:14:09.826Z,100010.16
2022-10-09T14:16:39.539Z,100013.22
2022-10-09T14:19:08.820Z,99999.66
2022-10-09T14:21:39.536Z,99991.94
2022-10-09T14:24:09.029Z,100004.94
2022-10-09T14:26:38.727Z,100010.78
2022-10-09T14:29:07.914Z,100035.22
2022-10-09T14:31:37.151Z,99975.97
2022-10-09T14:34:06.475Z,100024.66
2022-10-09T14:36:37.223Z,100011.09
2022-10-09T14:39:07.903Z,100012.06
2022-10-09T14:41:38.030Z,99984.59
2022-10-09T14:44:07.420Z,100009.84
2022-10-09T14:46:37.901Z,100008.94
2022-10-09T14:49:09.304Z,100015.38
2022-10-09T14:51:41.013Z,100019.75
2022-10-09T14:54:13.510Z,100018.84
2022-10-09T14:56:42.751Z,100025.66
2022-10-09T14:59:11.925Z,100017.91
2022-10-09T15:01:41.138Z,100022.66
2022-10-09T15:04:10.297Z,100029.53
2022-10-09T15:06:39.511Z,100042.72
2022-10-09T15:09:10.105Z,100030.84
2022-10-09T15:11:39.300Z,100022.16
2022-10-09T15:14:08.464Z,99983.19
2022-10-09T15:16:38.036Z,100022.63
2022-10-09T15:19:07.377Z,100013.84
2022-10-09T15:21:37.547Z,99985.31
2022-10-09T15:24:07.509Z,99996.22
2022-10-09T15:26:38.708Z,100018.84
2022-10-09T15:29:09.985Z,100025.69
2022-10-09T15:31:41.736Z,100015.84
2022-10-09T15:34:16.804Z,99996.53
2022-10-09T15:36:47.168Z,99978.09
2022-10-09T15:39:17.098Z,100019.53
2022-10-09T15:41:48.465Z,100015.19
2022-10-09T15:44:20.180Z,99988.63
2022-10-09T15:46:50.455Z,100014.88
2022-10-09T15:49:19.686Z,100018.50
2022-10-09T15:51:48.821Z,100018.41
2022-10-09T15:54:18.108Z,100031.41
2022-10-09T15:56:48.758Z,100020.06
2022-10-09T15:59:18.114Z,100015.25
2022-10-09T16:01:47.618Z,100000.09
2022-10-09T16:04:17.277Z,100000.44
2022-10-09T16:06:46.427Z,99983.16
2022-10-09T16:09:15.776Z,100024.78
2022-10-09T16:11:44.993Z,100032.78
2022-10-09T16:14:15.696Z,100016.88
2022-10-09T16:16:44.907Z,100020.34
2022-10-09T16:19:14.160Z,100019.66
2022-10-09T16:21:43.343Z,100029.75
2022-10-09T16:24:12.660Z,100029.91
2022-10-09T16:26:41.917Z,100020.91
2022-10-09T16:29:11.182Z,100028.56
2022-10-09T16:31:41.812Z,100027.78
2022-10-09T16:34:11.463Z,100030.53
2022-10-09T16:36:40.702Z,100027.47
2022-10-09T16:39:09.986Z,100042.69
2022-10-09T16:41:41.941Z,100023.13
2022-10-09T16:44:16.978Z,100020.84
2022-10-09T16:46:47.875Z,100032.81
2022-10-09T16:49:21.425Z,100031.47
2022-10-09T16:51:53.609Z,100019.13
2022-10-09T16:54:22.889Z,100017.28
2022-10-09T16:56:52.298Z,100024.88
2022-10-09T16:59:21.618Z,100044.56
2022-10-09T17:01:53.350Z,100020.38
2022-10-09T17:04:23.234Z,100032.84
2022-10-09T17:06:53.340Z,100020.72
2022-10-09T17:09:22.945Z,100028.06
2022-10-09T17:11:52.117Z,100038.13
2022-10-09T17:14:21.254Z,100013.78
2022-10-09T17:16:52.018Z,100027.88
2022-10-09T17:19:21.397Z,100042.84
2022-10-09T17:21:50.596Z,100055.41
2022-10-09T17:24:20.412Z,100037.00
2022-10-09T17:26:49.614Z,100053.44
2022-10-09T17:29:18.813Z,100059.81
2022-10-09T17:31:48.170Z,100068.09
2022-10-09T17:34:19.102Z,100048.19
2022-10-09T17:36:48.318Z,100060.59
2022-10-09T17:39:19.303Z,100065.69
2022-10-09T17:41:49.959Z,100074.59
2022-10-09T17:44:20.178Z,100086.97
2022-10-09T17:46:49.371Z,100072.09
2022-10-09T17:49:19.902Z,100067.25
2022-10-09T17:51:49.161Z,100147.41
2022-10-09T17:54:18.478Z,100158.94
2022-10-09T17:56:47.961Z,100169.00
2022-10-09T17:59:17.185Z,100204.16
2022-10-09T18:01:47.510Z,100185.16
2022-10-09T18:04:17.647Z,100212.91
2022-10-09T18:06:48.618Z,100227.50
2022-10-09T18:09:18.632Z,100234.81
2022-10-09T18:11:49.118Z,100261.44
2022-10-09T18:14:18.443Z,100271.72
2022-10-09T18:16:48.503Z,100271.06
2022-10-09T18:19:20.104Z,100295.94
2022-10-09T18:21:52.244Z,100311.53
2022-10-09T18:24:21.565Z,100333.78
2022-10-09T18:26:50.872Z,100334.03
2022-10-09T18:29:20.578Z,100356.28
2022-10-09T18:31:51.760Z,100368.16
2022-10-09T18:34:21.034Z,100382.28
2022-10-09T18:36:52.381Z,100387.03
2022-10-09T18:39:22.141Z,100387.91
2022-10-09T18:41:51.339Z,100399.44
2022-10-09T18:44:24.490Z,100412.16
2022-10-09T18:46:59.023Z,100420.59
2022-10-09T18:49:32.105Z,100430.22
2022-10-09T18:52:04.869Z,100427.66
2022-10-09T18:54:34.641Z,100447.69
2022-10-09T18:57:05.098Z,100452.44
2022-10-09T18:59:36.631Z,100456.09
2022-10-09T19:02:06.374Z,100461.88
2022-10-09T19:04:35.688Z,100462.53
2022-10-09T19:07:07.879Z,100468.94
2022-10-09T19:09:38.275Z,100473.31
2022-10-09T19:12:07.908Z,100479.88
2022-10-09T19:14:37.781Z,100486.31
2022-10-09T19:17:08.065Z,100477.00
2022-10-09T19:19:37.660Z,100475.88
2022-10-09T19:22:14.077Z,100498.97
2022-10-09T19:24:44.942Z,100507.31
2022-10-09T19:27:15.110Z,100491.53
2022-10-09T19:29:44.799Z,100505.84
2022-10-09T19:32:14.178Z,100511.03
2022-10-09T19:34:44.463Z,100511.19
2022-10-09T19:37:15.634Z,100516.53
2022-10-09T19:39:49.128Z,100499.28
2022-10-09T19:42:20.789Z,100515.25
2022-10-09T19:44:50.295Z,100525.91
2022-10-09T19:47:21.599Z,100525.91
2022-10-09T19:49:51.240Z,100534.28
2022-10-09T19:52:23.549Z,100518.38
2022-10-09T19:54:53.421Z,100529.16
2022-10-09T19:57:22.886Z,100532.94
2022-10-09T19:59:52.338Z,100544.66
2022-10-09T20:02:22.036Z,100535.47
2022-10-09T20:04:51.563Z,100524.44
2022-10-09T20:07:22.183Z,100556.13
2022-10-09T20:09:51.857Z,100553.72
2022-10-09T20:12:21.351Z,100558.09
2022-10-09T20:14:50.747Z,100564.09
2022-10-09T20:17:20.968Z,100567.50
2022-10-09T20:19:50.575Z,100576.69
2022-10-09T20:22:21.616Z,100564.63
2022-10-09T20:24:54.414Z,100578.66
2022-10-09T20:27:24.030Z,100583.16
2022-10-09T20:29:54.865Z,100596.03
2022-10-09T20:32:25.103Z,100592.84
2022-10-09T20:34:54.950Z,100591.22
2022-10-09T20:37:25.654Z,100602.50
2022-10-09T20:39:55.299Z,100608.28
2022-10-09T20:42:24.570Z,100598.31
2022-10-09T20:44:54.197Z,100581.88
2022-10-09T20:47:23.456Z,100621.03
2022-10-09T20:49:54.110Z,100585.06
2022-10-09T20:52:24.880Z,100606.97
2022-10-09T20:54:54.230Z,100626.31
2022-10-09T20:57:23.533Z,100634.19
2022-10-09T20:59:53.054Z,100630.00
2022-10-09T21:02:22.525Z,100635.94
2022-10-09T21:04:51.886Z,100631.38
2022-10-09T21:07:21.152Z,100634.44
2022-10-09T21:09:51.764Z,100631.34
2022-10-09T21:12:20.981Z,100649.09
2022-10-09T21:14:50.286Z,100643.75
2022-10-09T21:17:19.538Z,100652.28
2022-10-09T21:19:50.857Z,100653.22
2022-10-09T21:22:20.186Z,100664.34
2022-10-09T21:24:50.893Z,100637.16
2022-10-09T21:27:20.192Z,100658.91
2022-10-09T21:29:49.639Z,100678.44
2022-10-09T21:32:18.863Z,100678.69
2022-10-09T21:34:48.323Z,100682.53
2022-10-09T21:37:22.060Z,100665.44
2022-10-09T21:39:53.460Z,100665.88
2022-10-09T21:42:22.597Z,100688.91
2022-10-09T21:44:51.757Z,100689.22
2022-10-09T21:47:20.891Z,100698.06
2022-10-09T21:49:50.071Z,100684.59
2022-10-09T21:52:20.543Z,100711.03
2022-10-09T21:54:49.702Z,100708.94
2022-10-09T21:57:20.247Z,100712.09
2022-10-09T21:59:49.553Z,100710.31
2022-10-09T22:02:18.768Z,100718.94
2022-10-09T22:04:48.373Z,100710.41
2022-10-09T22:07:17.513Z,100708.25
2022-10-09T22:09:47.080Z,100713.41
2022-10-09T22:12:16.309Z,100723.06
2022-10-09T22:14:46.954Z,100723.22
2022-10-09T22:17:16.714Z,100718.91
2022-10-09T22:19:46.992Z,100732.25
2022-10-09T22:22:16.883Z,100713.88
2022-10-09T22:24:46.225Z,100733.69
2022-10-09T22:27:15.394Z,100741.81
2022-10-09T22:29:46.050Z,100740.59
2022-10-09T22:32:15.315Z,100744.84
2022-10-09T22:34:44.968Z,100743.03
2022-10-09T22:37:14.128Z,100744.31
2022-10-09T22:39:43.322Z,100744.94
2022-10-09T22:42:12.612Z,100741.19
2022-10-09T22:44:42.058Z,100752.34
2022-10-09T22:47:13.202Z,100748.22
2022-10-09T22:49:42.403Z,100725.34
2022-10-09T22:52:11.700Z,100747.38
2022-10-09T22:54:40.979Z,100754.78
2022-10-09T22:57:10.300Z,100759.81
2022-10-09T22:59:39.436Z,100764.69
2022-10-09T23:02:09.118Z,100759.34
2022-10-09T23:04:39.835Z,100767.63
2022-10-09T23:07:09.047Z,100777.44
2022-10-09T23:09:38.248Z,100784.72
2022-10-09T23:12:07.487Z,100789.78
2022-10-09T23:14:36.681Z,100787.94
2022-10-09T23:17:05.850Z,100792.59
2022-10-09T23:19:35.147Z,100799.28
2022-10-09T23:22:05.714Z,100794.44
2022-10-09T23:24:34.935Z,100802.72
2022-10-09T23:27:04.078Z,100811.22
2022-10-09T23:29:33.190Z,100816.78
2022-10-09T23:32:02.315Z,100801.41
2022-10-09T23:34:31.556Z,100828.03
2022-10-09T23:37:00.845Z,100821.75
2022-10-09T23:39:31.393Z,100831.69
2022-10-09T23:42:00.551Z,100771.34
2022-10-09T23:44:29.673Z,100840.78
2022-10-09T23:46:58.839Z,100846.22
2022-10-09T23:49:28.048Z,100854.50
2022-10-09T23:51:57.155Z,100849.03
2022-10-09T23:54:26.377Z,100844.47
2022-10-09T23:56:56.901Z,100863.00
2022-10-09T23:59:26.215Z,100862.66
